Airfield :
LOGIN :

Register | Disclaimer

   EN    FR    IT 

 










Legend :    VFR   Marginal VFR   IFR   Intensive IFR   Very Intensive IFR
Visi :
Ceiling :
>= 8 km
>= 3000ft
5 to 8 km
1000 to 3000 ft
1500m to 5 km
500 to 1000 ft
800 to 1500m
200 to 500 ft
< 800m
< 200 ft
Symbols :   Thunderstorms  Fog  Heavy snow  Heavy precipitations  Wind > 20 kt
SIGMETs :     Misc.  Thunderstorms  Icing  Turbulence  Mountain Waves  Volcanic Ashes






- Airport Elevation : 1300 ft
- IATA code : LIG


LFBL - Limoges

CURRENT METAR :
  • 261130Z AUTO 14008KT 100V170 9999 BKN030 BKN043 BKN054 14/08 Q1017 NOSIG

EXPIRED METARs :
  • 261100Z AUTO 13005KT 9999 FEW030 BKN040 BKN047 12/07 Q1017 NOSIG
  • 261030Z AUTO 11005KT 9999 FEW032 BKN039 BKN047 12/07 Q1017 NOSIG
  • 261000Z AUTO 09005KT 060V120 9999 SCT038 BKN060 10/06 Q1018 NOSIG
  • 260930Z AUTO 08005KT 9999 FEW039 10/05 Q1017 TEMPO 14010KT

TAF TAF LFBL
Valid from the 26 at 12:00 until the 27 at 12:00 UTC


261100Z 2612/2712 12006KT 9999 SCT035 BKN050
ATIS : +33 5 55 48 40 37



MET'MAP, your aeronautical weather chart ! - Copyright ORBIFLY December 2007 - Disclaimer

ORBIFLY MET'MAP TEAM :

Programming & Development : Alexandra Zaïnal
Concept & original design : Baudouin d'Aumeries
Assistance for programming : Marc-Olivier Méhu
Technical & hardware support : Manuel Goepfert

Contact : metmap@orbifly.com




SOURCES & CREDITS :

   NOAA